createdAt,value
2022-08-16T00:04:13.205Z,20.50
2022-08-16T00:09:15.007Z,20.40
2022-08-16T00:14:16.726Z,20.40
2022-08-16T00:19:20.064Z,20.40
2022-08-16T00:24:31.080Z,20.30
2022-08-16T00:29:34.529Z,20.30
2022-08-16T00:34:43.346Z,20.20
2022-08-16T00:39:47.880Z,20.10
2022-08-16T00:44:59.527Z,19.90
2022-08-16T00:50:01.905Z,19.80
2022-08-16T00:55:03.805Z,19.70
2022-08-16T01:00:10.133Z,19.60
2022-08-16T01:05:12.124Z,19.50
2022-08-16T01:10:16.153Z,19.40
2022-08-16T01:15:18.518Z,19.30
2022-08-16T01:20:24.460Z,19.20
2022-08-16T01:25:33.924Z,19.10
2022-08-16T01:30:36.670Z,19.00
2022-08-16T01:35:38.691Z,18.90
2022-08-16T01:40:40.752Z,18.80
2022-08-16T01:45:43.493Z,18.70
2022-08-16T01:51:16.193Z,18.60
2022-08-16T01:56:07.039Z,18.60
2022-08-16T02:01:08.713Z,18.50
2022-08-16T02:06:10.539Z,18.50
2022-08-16T02:11:12.289Z,18.40
2022-08-16T02:16:18.698Z,18.30
2022-08-16T02:21:31.221Z,18.30
2022-08-16T02:26:34.379Z,18.30
2022-08-16T02:32:03.558Z,18.30
2022-08-16T02:36:58.039Z,18.20
2022-08-16T02:42:00.410Z,18.20
2022-08-16T02:47:02.488Z,18.10
2022-08-16T02:52:04.230Z,18.10
2022-08-16T02:57:11.014Z,18.10
2022-08-16T03:02:12.796Z,18.00
2022-08-16T03:07:17.957Z,17.90
2022-08-16T03:12:30.224Z,17.90
2022-08-16T03:17:53.044Z,17.90
2022-08-16T03:22:56.575Z,17.80
2022-08-16T03:27:58.553Z,17.80
2022-08-16T03:33:01.519Z,17.70
2022-08-16T03:38:04.070Z,17.70
2022-08-16T03:43:19.995Z,17.60
2022-08-16T03:48:36.969Z,17.60
2022-08-16T03:53:41.610Z,17.60
2022-08-16T03:58:44.526Z,17.50
2022-08-16T04:03:46.205Z,17.50
2022-08-16T04:08:47.947Z,17.50
2022-08-16T04:14:00.625Z,17.60
2022-08-16T04:19:10.283Z,17.60
2022-08-16T04:24:12.028Z,17.60
2022-08-16T04:29:15.019Z,17.60
2022-08-16T04:34:22.737Z,17.60
2022-08-16T04:39:45.725Z,17.70
2022-08-16T04:44:53.434Z,17.70
2022-08-16T04:49:56.499Z,17.80
2022-08-16T04:54:59.106Z,17.90
2022-08-16T05:00:30.711Z,17.90
2022-08-16T05:05:23.111Z,17.90
2022-08-16T05:10:25.478Z,18.00
2022-08-16T05:15:28.082Z,18.30
2022-08-16T05:20:38.671Z,19.40
2022-08-16T05:25:48.729Z,20.80
2022-08-16T05:30:50.695Z,22.00
2022-08-16T05:35:54.993Z,22.70
2022-08-16T05:40:59.900Z,23.20
2022-08-16T05:46:02.019Z,23.50
2022-08-16T05:51:03.624Z,23.80
2022-08-16T05:56:05.253Z,24.30
2022-08-16T06:01:07.495Z,24.70
2022-08-16T06:06:09.373Z,25.10
2022-08-16T06:11:11.286Z,25.50
2022-08-16T06:16:18.517Z,25.90
2022-08-16T06:21:22.562Z,26.20
2022-08-16T06:26:24.668Z,26.50
2022-08-16T06:31:46.966Z,26.80
2022-08-16T06:36:59.600Z,27.20
2022-08-16T06:42:01.568Z,27.60
2022-08-16T06:47:03.583Z,28.00
2022-08-16T06:52:05.410Z,28.30
2022-08-16T06:57:27.212Z,28.40
2022-08-16T07:02:33.234Z,28.60
2022-08-16T07:07:36.232Z,28.70
2022-08-16T07:12:47.549Z,28.70
2022-08-16T07:17:59.623Z,28.50
2022-08-16T07:23:01.652Z,28.80
2022-08-16T07:28:03.566Z,28.80
2022-08-16T07:33:05.829Z,29.00
2022-08-16T07:38:09.144Z,28.90
2022-08-16T07:43:10.719Z,29.10
2022-08-16T07:48:12.971Z,29.20
2022-08-16T07:53:15.745Z,29.40
2022-08-16T07:58:18.283Z,29.80
2022-08-16T08:03:39.357Z,30.00
2022-08-16T08:08:49.164Z,30.40
2022-08-16T08:13:53.821Z,30.40
2022-08-16T08:18:55.899Z,30.50
2022-08-16T08:23:58.133Z,30.30
2022-08-16T08:29:01.095Z,30.10
2022-08-16T08:34:04.821Z,30.80
2022-08-16T08:39:13.275Z,31.10
2022-08-16T08:44:28.998Z,31.10
2022-08-16T08:49:50.251Z,31.00
2022-08-16T08:54:53.851Z,31.40
2022-08-16T08:59:55.673Z,31.70
2022-08-16T09:04:58.528Z,32.00
2022-08-16T09:10:20.173Z,32.30
2022-08-16T09:15:24.039Z,32.20
2022-08-16T09:20:25.845Z,32.30
2022-08-16T09:25:34.064Z,32.60
2022-08-16T09:30:43.885Z,32.90
2022-08-16T09:35:46.709Z,32.90
2022-08-16T09:40:55.747Z,32.90
2022-08-16T09:46:00.556Z,33.30
2022-08-16T09:51:02.133Z,33.80
2022-08-16T09:56:05.728Z,33.80
2022-08-16T10:01:13.310Z,33.70
2022-08-16T10:06:14.889Z,33.60
2022-08-16T10:11:24.627Z,33.40
2022-08-16T10:16:26.452Z,33.50
2022-08-16T10:21:29.747Z,33.50
2022-08-16T10:27:18.442Z,33.70
2022-08-16T10:31:56.470Z,33.90
2022-08-16T10:36:58.488Z,34.00
2022-08-16T10:42:00.081Z,33.90
2022-08-16T10:47:02.505Z,34.40
2022-08-16T10:52:17.963Z,34.60
2022-08-16T10:57:20.876Z,34.90
2022-08-16T11:02:59.116Z,34.90
2022-08-16T11:07:53.226Z,35.10
2022-08-16T11:12:55.762Z,35.40
2022-08-16T11:23:19.150Z,35.70
2022-08-16T11:29:12.637Z,35.70
2022-08-16T11:33:58.882Z,35.90
2022-08-16T11:39:01.051Z,35.80
2022-08-16T11:44:02.890Z,35.30
2022-08-16T11:49:06.708Z,35.00
2022-08-16T11:54:21.722Z,34.80
2022-08-16T11:59:25.378Z,34.80
2022-08-16T12:04:30.280Z,34.60
2022-08-16T12:09:31.956Z,34.60
2022-08-16T12:14:35.518Z,35.10
2022-08-16T12:19:39.207Z,35.30
2022-08-16T12:24:40.784Z,34.90
2022-08-16T12:29:44.920Z,34.90
2022-08-16T12:34:48.008Z,35.00
2022-08-16T12:39:54.751Z,35.00
2022-08-16T12:44:56.311Z,35.10
2022-08-16T12:49:58.219Z,34.90
2022-08-16T12:54:59.956Z,34.80
2022-08-16T13:00:01.732Z,35.00
2022-08-16T13:05:03.317Z,34.90
2022-08-16T13:10:20.888Z,35.00
2022-08-16T13:15:27.040Z,34.80
2022-08-16T13:20:29.500Z,34.80
2022-08-16T13:25:31.077Z,34.80
2022-08-16T13:30:37.241Z,34.40
2022-08-16T13:35:43.766Z,34.50
2022-08-16T13:40:45.333Z,34.50
2022-08-16T13:45:55.683Z,34.50
2022-08-16T13:51:00.584Z,34.50
2022-08-16T13:56:05.533Z,34.60
2022-08-16T14:01:09.834Z,34.60
2022-08-16T14:06:11.838Z,34.40
2022-08-16T14:11:15.786Z,34.20
2022-08-16T14:16:23.958Z,34.10
2022-08-16T14:21:26.527Z,34.10
2022-08-16T14:26:36.712Z,33.90
2022-08-16T14:31:39.749Z,33.90
2022-08-16T14:36:42.724Z,33.70
2022-08-16T14:41:45.059Z,33.50
2022-08-16T14:46:46.698Z,33.70
2022-08-16T14:51:48.307Z,33.80
2022-08-16T14:56:54.940Z,33.80
2022-08-16T15:01:58.670Z,33.80
2022-08-16T15:07:02.033Z,33.50
2022-08-16T15:12:06.920Z,33.30
2022-08-16T15:17:34.020Z,33.40
2022-08-16T15:22:38.942Z,33.20
2022-08-16T15:27:40.718Z,33.30
2022-08-16T15:32:42.338Z,33.30
2022-08-16T15:37:47.338Z,33.20
2022-08-16T15:42:56.295Z,33.10
2022-08-16T15:47:59.194Z,33.20
2022-08-16T15:53:07.636Z,33.10
2022-08-16T15:58:34.623Z,33.10
2022-08-16T16:03:35.913Z,32.90
2022-08-16T16:08:38.956Z,32.80
2022-08-16T16:13:43.394Z,32.70
2022-08-16T16:18:48.755Z,32.60
2022-08-16T16:23:54.862Z,32.40
2022-08-16T16:29:07.902Z,32.30
2022-08-16T16:34:16.310Z,32.10
2022-08-16T16:39:17.963Z,31.80
2022-08-16T16:44:31.824Z,32.00
2022-08-16T16:49:35.536Z,32.40
2022-08-16T16:54:43.306Z,32.40
2022-08-16T16:59:48.470Z,32.00
2022-08-16T17:04:57.452Z,31.80
2022-08-16T17:09:59.120Z,31.80
2022-08-16T17:15:02.192Z,31.80
2022-08-16T17:25:35.001Z,31.50
2022-08-16T17:30:45.199Z,31.40
2022-08-16T17:35:55.294Z,31.10
2022-08-16T17:40:58.868Z,30.60
2022-08-16T17:46:00.983Z,30.40
2022-08-16T17:51:02.745Z,30.10
2022-08-16T17:56:04.507Z,29.80
2022-08-16T18:01:06.274Z,29.50
2022-08-16T18:06:08.009Z,29.10
2022-08-16T18:11:09.680Z,28.90
2022-08-16T18:16:13.696Z,28.60
2022-08-16T18:21:15.442Z,28.30
2022-08-16T18:26:17.018Z,28.20
2022-08-16T18:31:18.706Z,28.00
2022-08-16T18:36:21.794Z,27.80
2022-08-16T18:41:23.480Z,27.60
2022-08-16T18:46:25.180Z,27.30
2022-08-16T18:51:26.916Z,26.90
2022-08-16T18:56:56.185Z,26.70
2022-08-16T19:01:50.339Z,26.60
2022-08-16T19:06:51.980Z,26.50
2022-08-16T19:11:53.608Z,26.20
2022-08-16T19:16:55.285Z,26.00
2022-08-16T19:21:56.953Z,25.90
2022-08-16T19:26:58.636Z,25.70
2022-08-16T19:32:00.397Z,25.50
2022-08-16T19:37:02.033Z,25.30
2022-08-16T19:42:03.598Z,25.20
2022-08-16T19:47:05.350Z,25.00
2022-08-16T19:52:07.080Z,24.70
2022-08-16T19:57:08.825Z,24.50
2022-08-16T20:02:10.598Z,24.50
2022-08-16T20:07:32.444Z,24.40
2022-08-16T20:12:34.152Z,24.40
2022-08-16T20:17:35.916Z,24.20
2022-08-16T20:22:53.615Z,24.10
2022-08-16T20:27:56.019Z,24.00
2022-08-16T20:32:57.780Z,23.90
2022-08-16T20:37:59.554Z,23.80
2022-08-16T20:43:01.363Z,23.80
2022-08-16T20:48:03.355Z,23.70
2022-08-16T20:53:05.099Z,23.60
2022-08-16T20:58:06.644Z,23.50
2022-08-16T21:03:08.283Z,23.30
2022-08-16T21:08:28.714Z,23.20
2022-08-16T21:13:31.551Z,23.10
2022-08-16T21:18:33.125Z,23.00
2022-08-16T21:23:34.753Z,22.80
2022-08-16T21:28:40.239Z,22.60
2022-08-16T21:33:44.202Z,22.50
2022-08-16T21:38:49.034Z,22.30
2022-08-16T21:43:50.654Z,22.20
2022-08-16T21:48:52.213Z,22.10
2022-08-16T21:53:53.800Z,22.00
2022-08-16T21:58:55.353Z,21.80
2022-08-16T22:04:35.369Z,21.60
2022-08-16T22:09:18.546Z,21.50
2022-08-16T22:14:20.275Z,21.50
2022-08-16T22:19:22.027Z,21.40
2022-08-16T22:24:23.800Z,21.30
2022-08-16T22:29:25.550Z,21.30
2022-08-16T22:34:27.106Z,21.10
2022-08-16T22:39:28.770Z,21.00
2022-08-16T22:44:30.492Z,20.90
2022-08-16T22:49:32.135Z,20.90
2022-08-16T22:54:47.945Z,20.80
2022-08-16T22:59:52.880Z,20.70
2022-08-16T23:04:55.475Z,20.60
2022-08-16T23:09:57.224Z,20.40
2022-08-16T23:14:58.986Z,20.40
2022-08-16T23:20:00.553Z,20.40
2022-08-16T23:25:02.182Z,20.30
2022-08-16T23:30:03.744Z,20.30
2022-08-16T23:35:05.368Z,20.20
2022-08-16T23:40:07.184Z,20.10
2022-08-16T23:45:08.882Z,20.10
2022-08-16T23:50:10.469Z,20.00
2022-08-16T23:55:12.063Z,20.00
